sensor_id;sensor_type;location;lat;lon;timestamp;temperature;humidity
17992;DHT22;9121;50.926;5.340;2023-07-31T00:02:01;17.80;99.90
17992;DHT22;9121;50.926;5.340;2023-07-31T00:04:28;17.70;99.90
17992;DHT22;9121;50.926;5.340;2023-07-31T00:06:57;17.70;99.90
17992;DHT22;9121;50.926;5.340;2023-07-31T00:09:24;17.70;99.90
17992;DHT22;9121;50.926;5.340;2023-07-31T00:11:51;17.70;99.90
17992;DHT22;9121;50.926;5.340;2023-07-31T00:14:18;17.70;99.90
17992;DHT22;9121;50.926;5.340;2023-07-31T00:16:45;17.70;99.90
17992;DHT22;9121;50.926;5.340;2023-07-31T00:19:12;17.70;99.90
17992;DHT22;9121;50.926;5.340;2023-07-31T00:21:39;17.60;99.90
17992;DHT22;9121;50.926;5.340;2023-07-31T00:24:07;17.70;99.90
17992;DHT22;9121;50.926;5.340;2023-07-31T00:26:34;17.70;99.90
17992;DHT22;9121;50.926;5.340;2023-07-31T00:29:01;17.60;99.90
17992;DHT22;9121;50.926;5.340;2023-07-31T00:31:28;17.60;99.90
17992;DHT22;9121;50.926;5.340;2023-07-31T00:33:55;17.60;99.90
17992;DHT22;9121;50.926;5.340;2023-07-31T00:36:22;17.60;99.90
17992;DHT22;9121;50.926;5.340;2023-07-31T00:38:49;17.60;99.90
17992;DHT22;9121;50.926;5.340;2023-07-31T00:41:17;17.60;99.90
17992;DHT22;9121;50.926;5.340;2023-07-31T00:43:44;17.60;99.90
17992;DHT22;9121;50.926;5.340;2023-07-31T00:46:11;17.60;99.90
17992;DHT22;9121;50.926;5.340;2023-07-31T00:48:39;17.60;99.90
17992;DHT22;9121;50.926;5.340;2023-07-31T00:51:07;17.60;99.90
17992;DHT22;9121;50.926;5.340;2023-07-31T00:53:35;17.70;99.90
17992;DHT22;9121;50.926;5.340;2023-07-31T00:56:02;17.70;99.90
17992;DHT22;9121;50.926;5.340;2023-07-31T00:58:31;17.80;99.90
17992;DHT22;9121;50.926;5.340;2023-07-31T01:00:58;17.80;99.90
17992;DHT22;9121;50.926;5.340;2023-07-31T01:03:25;17.80;99.90
17992;DHT22;9121;50.926;5.340;2023-07-31T01:06:00;17.80;99.90
17992;DHT22;9121;50.926;5.340;2023-07-31T01:08:37;17.80;99.90
17992;DHT22;9121;50.926;5.340;2023-07-31T01:11:11;17.80;99.90
17992;DHT22;9121;50.926;5.340;2023-07-31T01:13:42;17.80;99.90
17992;DHT22;9121;50.926;5.340;2023-07-31T01:16:09;17.80;99.90
17992;DHT22;9121;50.926;5.340;2023-07-31T01:18:36;17.80;99.90
17992;DHT22;9121;50.926;5.340;2023-07-31T01:21:11;17.80;99.90
17992;DHT22;9121;50.926;5.340;2023-07-31T01:24:10;17.80;99.90
17992;DHT22;9121;50.926;5.340;2023-07-31T01:26:44;17.90;99.90
17992;DHT22;9121;50.926;5.340;2023-07-31T01:29:15;17.90;99.90
17992;DHT22;9121;50.926;5.340;2023-07-31T01:31:48;17.90;99.90
17992;DHT22;9121;50.926;5.340;2023-07-31T01:34:17;18.00;99.90
17992;DHT22;9121;50.926;5.340;2023-07-31T01:36:45;17.90;99.90
17992;DHT22;9121;50.926;5.340;2023-07-31T01:39:12;18.00;99.90
17992;DHT22;9121;50.926;5.340;2023-07-31T01:41:42;18.00;99.90
17992;DHT22;9121;50.926;5.340;2023-07-31T01:44:09;18.00;99.90
17992;DHT22;9121;50.926;5.340;2023-07-31T01:46:36;18.00;99.90
17992;DHT22;9121;50.926;5.340;2023-07-31T01:49:03;18.00;99.90
17992;DHT22;9121;50.926;5.340;2023-07-31T01:51:31;18.00;99.90
17992;DHT22;9121;50.926;5.340;2023-07-31T01:53:59;18.10;99.90
17992;DHT22;9121;50.926;5.340;2023-07-31T01:56:26;18.10;99.90
17992;DHT22;9121;50.926;5.340;2023-07-31T01:58:54;18.10;99.90
17992;DHT22;9121;50.926;5.340;2023-07-31T02:01:21;18.10;99.90
17992;DHT22;9121;50.926;5.340;2023-07-31T02:03:49;18.10;99.90
17992;DHT22;9121;50.926;5.340;2023-07-31T02:06:16;18.10;99.90
17992;DHT22;9121;50.926;5.340;2023-07-31T02:08:43;18.10;99.90
17992;DHT22;9121;50.926;5.340;2023-07-31T02:11:09;18.10;99.90
17992;DHT22;9121;50.926;5.340;2023-07-31T02:13:36;18.10;99.90
17992;DHT22;9121;50.926;5.340;2023-07-31T02:16:05;18.10;99.90
17992;DHT22;9121;50.926;5.340;2023-07-31T02:18:32;18.10;99.90
17992;DHT22;9121;50.926;5.340;2023-07-31T02:20:59;18.10;99.90
17992;DHT22;9121;50.926;5.340;2023-07-31T02:23:25;18.10;99.90
17992;DHT22;9121;50.926;5.340;2023-07-31T02:25:52;18.10;99.90
17992;DHT22;9121;50.926;5.340;2023-07-31T02:28:19;18.10;99.90
17992;DHT22;9121;50.926;5.340;2023-07-31T02:30:46;18.10;99.90
17992;DHT22;9121;50.926;5.340;2023-07-31T02:33:15;18.10;99.90
17992;DHT22;9121;50.926;5.340;2023-07-31T02:35:42;18.10;99.90
17992;DHT22;9121;50.926;5.340;2023-07-31T02:38:09;18.10;99.90
17992;DHT22;9121;50.926;5.340;2023-07-31T02:40:36;18.10;99.90
17992;DHT22;9121;50.926;5.340;2023-07-31T02:43:03;18.10;99.90
17992;DHT22;9121;50.926;5.340;2023-07-31T02:45:30;18.10;99.90
17992;DHT22;9121;50.926;5.340;2023-07-31T02:47:57;18.00;99.90
17992;DHT22;9121;50.926;5.340;2023-07-31T02:50:25;18.00;99.90
17992;DHT22;9121;50.926;5.340;2023-07-31T02:52:53;18.00;99.90
17992;DHT22;9121;50.926;5.340;2023-07-31T02:55:20;18.00;99.90
17992;DHT22;9121;50.926;5.340;2023-07-31T02:57:47;18.00;99.90
17992;DHT22;9121;50.926;5.340;2023-07-31T03:00:14;18.00;99.90
17992;DHT22;9121;50.926;5.340;2023-07-31T03:02:40;18.10;99.90
17992;DHT22;9121;50.926;5.340;2023-07-31T03:05:08;18.00;99.90
17992;DHT22;9121;50.926;5.340;2023-07-31T03:07:36;18.00;99.90
17992;DHT22;9121;50.926;5.340;2023-07-31T03:10:04;18.00;99.90
17992;DHT22;9121;50.926;5.340;2023-07-31T03:12:31;18.00;99.90
17992;DHT22;9121;50.926;5.340;2023-07-31T03:14:58;18.10;99.90
17992;DHT22;9121;50.926;5.340;2023-07-31T03:17:25;18.00;99.90
17992;DHT22;9121;50.926;5.340;2023-07-31T03:19:52;18.10;99.90
17992;DHT22;9121;50.926;5.340;2023-07-31T03:22:19;18.10;99.90
17992;DHT22;9121;50.926;5.340;2023-07-31T03:24:47;18.10;99.90
17992;DHT22;9121;50.926;5.340;2023-07-31T03:27:14;18.10;99.90
17992;DHT22;9121;50.926;5.340;2023-07-31T03:29:41;18.10;99.90
17992;DHT22;9121;50.926;5.340;2023-07-31T03:32:08;18.10;99.90
17992;DHT22;9121;50.926;5.340;2023-07-31T03:34:35;18.10;99.90
17992;DHT22;9121;50.926;5.340;2023-07-31T03:37:03;18.10;99.90
17992;DHT22;9121;50.926;5.340;2023-07-31T03:39:31;18.10;99.90
17992;DHT22;9121;50.926;5.340;2023-07-31T03:41:59;18.10;99.90
17992;DHT22;9121;50.926;5.340;2023-07-31T03:44:26;18.00;99.90
17992;DHT22;9121;50.926;5.340;2023-07-31T03:46:53;18.00;99.90
17992;DHT22;9121;50.926;5.340;2023-07-31T03:49:20;18.10;99.90
17992;DHT22;9121;50.926;5.340;2023-07-31T03:51:47;18.10;99.90
17992;DHT22;9121;50.926;5.340;2023-07-31T03:54:14;18.10;99.90
17992;DHT22;9121;50.926;5.340;2023-07-31T03:56:41;18.10;99.90
17992;DHT22;9121;50.926;5.340;2023-07-31T03:59:09;18.10;99.90
17992;DHT22;9121;50.926;5.340;2023-07-31T04:01:36;18.10;99.90
17992;DHT22;9121;50.926;5.340;2023-07-31T04:04:03;18.10;99.90
17992;DHT22;9121;50.926;5.340;2023-07-31T04:06:30;18.10;99.90
17992;DHT22;9121;50.926;5.340;2023-07-31T04:08:57;18.10;99.90
17992;DHT22;9121;50.926;5.340;2023-07-31T04:11:24;18.10;99.90
17992;DHT22;9121;50.926;5.340;2023-07-31T04:13:51;18.10;99.90
17992;DHT22;9121;50.926;5.340;2023-07-31T04:16:20;18.10;99.90
17992;DHT22;9121;50.926;5.340;2023-07-31T04:18:47;18.10;99.90
17992;DHT22;9121;50.926;5.340;2023-07-31T04:21:14;18.10;99.90
17992;DHT22;9121;50.926;5.340;2023-07-31T04:23:40;18.10;99.90
17992;DHT22;9121;50.926;5.340;2023-07-31T04:26:07;18.10;99.90
17992;DHT22;9121;50.926;5.340;2023-07-31T04:28:34;18.10;99.90
17992;DHT22;9121;50.926;5.340;2023-07-31T04:31:01;18.10;99.90
17992;DHT22;9121;50.926;5.340;2023-07-31T04:33:29;18.10;99.90
17992;DHT22;9121;50.926;5.340;2023-07-31T04:35:56;18.10;99.90
17992;DHT22;9121;50.926;5.340;2023-07-31T04:38:23;18.10;99.90
17992;DHT22;9121;50.926;5.340;2023-07-31T04:40:50;18.00;99.90
17992;DHT22;9121;50.926;5.340;2023-07-31T04:43:17;18.00;99.90
17992;DHT22;9121;50.926;5.340;2023-07-31T04:45:45;18.00;99.90
17992;DHT22;9121;50.926;5.340;2023-07-31T04:48:13;18.00;99.90
17992;DHT22;9121;50.926;5.340;2023-07-31T04:50:41;18.00;99.90
17992;DHT22;9121;50.926;5.340;2023-07-31T04:53:08;17.90;99.90
17992;DHT22;9121;50.926;5.340;2023-07-31T04:55:35;17.90;99.90
17992;DHT22;9121;50.926;5.340;2023-07-31T04:58:03;17.70;99.90
17992;DHT22;9121;50.926;5.340;2023-07-31T05:00:29;17.60;99.90
17992;DHT22;9121;50.926;5.340;2023-07-31T05:02:56;17.40;99.90
17992;DHT22;9121;50.926;5.340;2023-07-31T05:05:23;17.20;99.90
17992;DHT22;9121;50.926;5.340;2023-07-31T05:07:52;17.10;99.90
17992;DHT22;9121;50.926;5.340;2023-07-31T05:10:19;17.20;99.90
17992;DHT22;9121;50.926;5.340;2023-07-31T05:12:45;17.10;99.90
17992;DHT22;9121;50.926;5.340;2023-07-31T05:15:12;17.10;99.90
17992;DHT22;9121;50.926;5.340;2023-07-31T05:17:39;17.20;99.90
17992;DHT22;9121;50.926;5.340;2023-07-31T05:20:07;17.20;99.90
17992;DHT22;9121;50.926;5.340;2023-07-31T05:22:34;17.30;99.90
17992;DHT22;9121;50.926;5.340;2023-07-31T05:25:03;17.30;99.90
17992;DHT22;9121;50.926;5.340;2023-07-31T05:27:31;17.40;99.90
17992;DHT22;9121;50.926;5.340;2023-07-31T05:29:59;17.40;99.90
17992;DHT22;9121;50.926;5.340;2023-07-31T05:32:25;17.50;99.90
17992;DHT22;9121;50.926;5.340;2023-07-31T05:34:53;17.50;99.90
17992;DHT22;9121;50.926;5.340;2023-07-31T05:37:20;17.50;99.90
17992;DHT22;9121;50.926;5.340;2023-07-31T05:39:47;17.50;99.90
17992;DHT22;9121;50.926;5.340;2023-07-31T05:42:15;17.50;99.90
17992;DHT22;9121;50.926;5.340;2023-07-31T05:44:42;17.50;99.90
17992;DHT22;9121;50.926;5.340;2023-07-31T05:47:10;17.60;99.90
17992;DHT22;9121;50.926;5.340;2023-07-31T05:49:37;17.60;99.90
17992;DHT22;9121;50.926;5.340;2023-07-31T05:52:04;17.50;99.90
17992;DHT22;9121;50.926;5.340;2023-07-31T05:54:32;17.50;99.90
17992;DHT22;9121;50.926;5.340;2023-07-31T05:56:59;17.50;99.90
17992;DHT22;9121;50.926;5.340;2023-07-31T05:59:28;17.50;99.90
17992;DHT22;9121;50.926;5.340;2023-07-31T06:01:56;17.50;99.90
17992;DHT22;9121;50.926;5.340;2023-07-31T06:04:23;17.50;99.90
17992;DHT22;9121;50.926;5.340;2023-07-31T06:06:51;17.50;99.90
17992;DHT22;9121;50.926;5.340;2023-07-31T06:09:18;17.50;99.90
17992;DHT22;9121;50.926;5.340;2023-07-31T06:11:45;17.40;99.90
17992;DHT22;9121;50.926;5.340;2023-07-31T06:14:12;17.40;99.90
17992;DHT22;9121;50.926;5.340;2023-07-31T06:16:41;17.30;99.90
17992;DHT22;9121;50.926;5.340;2023-07-31T06:19:09;17.20;99.90
17992;DHT22;9121;50.926;5.340;2023-07-31T06:21:37;17.20;99.90
17992;DHT22;9121;50.926;5.340;2023-07-31T06:24:04;17.20;99.90
17992;DHT22;9121;50.926;5.340;2023-07-31T06:26:31;17.10;99.90
17992;DHT22;9121;50.926;5.340;2023-07-31T06:28:58;17.00;99.90
17992;DHT22;9121;50.926;5.340;2023-07-31T06:31:25;17.00;99.90
17992;DHT22;9121;50.926;5.340;2023-07-31T06:33:54;16.90;99.90
17992;DHT22;9121;50.926;5.340;2023-07-31T06:36:21;16.90;99.90
17992;DHT22;9121;50.926;5.340;2023-07-31T06:38:48;16.80;99.90
17992;DHT22;9121;50.926;5.340;2023-07-31T06:41:15;16.70;99.90
17992;DHT22;9121;50.926;5.340;2023-07-31T06:43:42;16.70;99.90
17992;DHT22;9121;50.926;5.340;2023-07-31T06:46:09;16.70;99.90
17992;DHT22;9121;50.926;5.340;2023-07-31T06:48:36;16.80;99.90
17992;DHT22;9121;50.926;5.340;2023-07-31T06:51:04;16.80;99.90
17992;DHT22;9121;50.926;5.340;2023-07-31T06:53:31;16.80;99.90
17992;DHT22;9121;50.926;5.340;2023-07-31T06:55:58;16.80;99.90
17992;DHT22;9121;50.926;5.340;2023-07-31T06:58:25;16.90;99.90
17992;DHT22;9121;50.926;5.340;2023-07-31T07:00:52;16.90;99.90
17992;DHT22;9121;50.926;5.340;2023-07-31T07:03:19;17.00;99.90
17992;DHT22;9121;50.926;5.340;2023-07-31T07:05:47;17.00;99.90
17992;DHT22;9121;50.926;5.340;2023-07-31T07:08:15;17.10;99.90
17992;DHT22;9121;50.926;5.340;2023-07-31T07:10:42;17.10;99.90
17992;DHT22;9121;50.926;5.340;2023-07-31T07:13:09;17.10;99.90
17992;DHT22;9121;50.926;5.340;2023-07-31T07:15:38;17.20;99.90
17992;DHT22;9121;50.926;5.340;2023-07-31T07:18:05;17.20;99.90
17992;DHT22;9121;50.926;5.340;2023-07-31T07:20:32;17.30;99.90
17992;DHT22;9121;50.926;5.340;2023-07-31T07:22:59;17.30;99.90
17992;DHT22;9121;50.926;5.340;2023-07-31T07:25:28;17.40;99.90
17992;DHT22;9121;50.926;5.340;2023-07-31T07:27:54;17.40;99.90
17992;DHT22;9121;50.926;5.340;2023-07-31T07:30:21;17.40;99.90
17992;DHT22;9121;50.926;5.340;2023-07-31T07:32:50;17.50;99.90
17992;DHT22;9121;50.926;5.340;2023-07-31T07:35:17;17.60;99.90
17992;DHT22;9121;50.926;5.340;2023-07-31T07:37:44;17.60;99.90
17992;DHT22;9121;50.926;5.340;2023-07-31T07:40:11;17.50;99.90
17992;DHT22;9121;50.926;5.340;2023-07-31T07:42:40;17.50;99.90
17992;DHT22;9121;50.926;5.340;2023-07-31T07:45:08;17.50;99.90
17992;DHT22;9121;50.926;5.340;2023-07-31T07:47:35;17.40;99.90
17992;DHT22;9121;50.926;5.340;2023-07-31T07:50:03;17.40;99.90
17992;DHT22;9121;50.926;5.340;2023-07-31T07:52:30;17.40;99.90
17992;DHT22;9121;50.926;5.340;2023-07-31T07:54:57;17.40;99.90
17992;DHT22;9121;50.926;5.340;2023-07-31T07:57:24;17.50;99.90
17992;DHT22;9121;50.926;5.340;2023-07-31T07:59:52;17.50;99.90
17992;DHT22;9121;50.926;5.340;2023-07-31T08:02:19;17.60;99.90
17992;DHT22;9121;50.926;5.340;2023-07-31T08:04:46;17.60;99.90
17992;DHT22;9121;50.926;5.340;2023-07-31T08:07:14;17.60;99.90
17992;DHT22;9121;50.926;5.340;2023-07-31T08:09:41;17.60;99.90
17992;DHT22;9121;50.926;5.340;2023-07-31T08:12:08;17.70;99.90
17992;DHT22;9121;50.926;5.340;2023-07-31T08:14:35;17.70;99.90
17992;DHT22;9121;50.926;5.340;2023-07-31T08:17:04;17.60;99.90
17992;DHT22;9121;50.926;5.340;2023-07-31T08:19:31;17.60;99.90
17992;DHT22;9121;50.926;5.340;2023-07-31T08:21:58;17.60;99.90
17992;DHT22;9121;50.926;5.340;2023-07-31T08:24:25;17.70;99.90
17992;DHT22;9121;50.926;5.340;2023-07-31T08:26:51;17.60;99.90
17992;DHT22;9121;50.926;5.340;2023-07-31T08:29:18;17.70;99.90
17992;DHT22;9121;50.926;5.340;2023-07-31T08:31:45;17.60;99.90
17992;DHT22;9121;50.926;5.340;2023-07-31T08:34:14;17.60;99.90
17992;DHT22;9121;50.926;5.340;2023-07-31T08:36:41;17.70;99.90
17992;DHT22;9121;50.926;5.340;2023-07-31T08:39:08;17.70;99.90
17992;DHT22;9121;50.926;5.340;2023-07-31T08:41:37;17.80;99.90
17992;DHT22;9121;50.926;5.340;2023-07-31T08:44:06;17.80;99.90
17992;DHT22;9121;50.926;5.340;2023-07-31T08:46:34;17.80;99.90
17992;DHT22;9121;50.926;5.340;2023-07-31T08:49:04;17.90;99.90
17992;DHT22;9121;50.926;5.340;2023-07-31T08:51:34;17.80;99.90
17992;DHT22;9121;50.926;5.340;2023-07-31T08:54:01;17.80;99.90
17992;DHT22;9121;50.926;5.340;2023-07-31T08:56:30;17.70;99.90
17992;DHT22;9121;50.926;5.340;2023-07-31T08:58:59;17.60;99.90
17992;DHT22;9121;50.926;5.340;2023-07-31T09:01:30;17.60;99.90
17992;DHT22;9121;50.926;5.340;2023-07-31T09:03:59;17.60;99.90
17992;DHT22;9121;50.926;5.340;2023-07-31T09:06:28;17.70;99.90
17992;DHT22;9121;50.926;5.340;2023-07-31T09:08:58;17.70;99.90
17992;DHT22;9121;50.926;5.340;2023-07-31T09:11:25;17.80;99.90
17992;DHT22;9121;50.926;5.340;2023-07-31T09:13:53;17.90;99.90
17992;DHT22;9121;50.926;5.340;2023-07-31T09:16:27;17.90;99.90
17992;DHT22;9121;50.926;5.340;2023-07-31T09:18:56;17.90;99.90
17992;DHT22;9121;50.926;5.340;2023-07-31T09:21:24;18.00;99.90
17992;DHT22;9121;50.926;5.340;2023-07-31T09:23:53;18.00;99.90
17992;DHT22;9121;50.926;5.340;2023-07-31T09:26:32;18.10;99.90
17992;DHT22;9121;50.926;5.340;2023-07-31T09:29:00;18.00;99.90
17992;DHT22;9121;50.926;5.340;2023-07-31T09:31:38;18.10;99.90
17992;DHT22;9121;50.926;5.340;2023-07-31T09:34:05;18.00;99.90
17992;DHT22;9121;50.926;5.340;2023-07-31T09:36:32;18.00;99.90
17992;DHT22;9121;50.926;5.340;2023-07-31T09:39:09;17.90;99.90
17992;DHT22;9121;50.926;5.340;2023-07-31T09:41:38;18.00;99.90
17992;DHT22;9121;50.926;5.340;2023-07-31T09:44:06;17.90;99.90
17992;DHT22;9121;50.926;5.340;2023-07-31T09:46:35;17.90;99.90
17992;DHT22;9121;50.926;5.340;2023-07-31T09:49:09;18.10;99.90
17992;DHT22;9121;50.926;5.340;2023-07-31T09:51:36;18.20;99.90
17992;DHT22;9121;50.926;5.340;2023-07-31T09:54:09;18.30;99.90
17992;DHT22;9121;50.926;5.340;2023-07-31T09:56:42;18.30;99.90
17992;DHT22;9121;50.926;5.340;2023-07-31T09:59:11;18.30;99.90
17992;DHT22;9121;50.926;5.340;2023-07-31T10:01:40;18.40;99.90
17992;DHT22;9121;50.926;5.340;2023-07-31T10:04:08;18.40;99.90
17992;DHT22;9121;50.926;5.340;2023-07-31T10:06:36;18.40;99.90
17992;DHT22;9121;50.926;5.340;2023-07-31T10:09:06;18.50;99.90
17992;DHT22;9121;50.926;5.340;2023-07-31T10:11:37;18.60;99.90
17992;DHT22;9121;50.926;5.340;2023-07-31T10:14:07;18.70;99.90
17992;DHT22;9121;50.926;5.340;2023-07-31T10:16:39;18.70;99.90
17992;DHT22;9121;50.926;5.340;2023-07-31T10:19:07;18.80;99.90
17992;DHT22;9121;50.926;5.340;2023-07-31T10:21:35;18.70;99.90
17992;DHT22;9121;50.926;5.340;2023-07-31T10:24:04;18.80;99.90
17992;DHT22;9121;50.926;5.340;2023-07-31T10:26:32;18.90;99.90
17992;DHT22;9121;50.926;5.340;2023-07-31T10:28:59;18.90;99.90
17992;DHT22;9121;50.926;5.340;2023-07-31T10:31:29;19.00;99.90
17992;DHT22;9121;50.926;5.340;2023-07-31T10:33:57;18.90;99.90
17992;DHT22;9121;50.926;5.340;2023-07-31T10:36:25;18.90;99.90
17992;DHT22;9121;50.926;5.340;2023-07-31T10:38:52;18.90;99.90
17992;DHT22;9121;50.926;5.340;2023-07-31T10:41:28;18.90;99.90
17992;DHT22;9121;50.926;5.340;2023-07-31T10:43:57;19.00;99.90
17992;DHT22;9121;50.926;5.340;2023-07-31T10:46:24;18.90;99.90
17992;DHT22;9121;50.926;5.340;2023-07-31T10:48:59;19.00;99.90
17992;DHT22;9121;50.926;5.340;2023-07-31T10:51:33;19.00;99.90
17992;DHT22;9121;50.926;5.340;2023-07-31T10:54:10;19.10;99.90
17992;DHT22;9121;50.926;5.340;2023-07-31T10:56:38;19.30;99.90
17992;DHT22;9121;50.926;5.340;2023-07-31T10:59:05;19.40;99.90
17992;DHT22;9121;50.926;5.340;2023-07-31T11:01:50;19.30;99.90
17992;DHT22;9121;50.926;5.340;2023-07-31T11:04:24;19.30;99.90
17992;DHT22;9121;50.926;5.340;2023-07-31T11:06:58;19.30;99.90
17992;DHT22;9121;50.926;5.340;2023-07-31T11:09:28;19.40;99.90
17992;DHT22;9121;50.926;5.340;2023-07-31T11:11:56;19.30;99.90
17992;DHT22;9121;50.926;5.340;2023-07-31T11:14:23;19.30;99.90
17992;DHT22;9121;50.926;5.340;2023-07-31T11:16:50;19.40;99.90
17992;DHT22;9121;50.926;5.340;2023-07-31T11:19:23;19.60;99.90
17992;DHT22;9121;50.926;5.340;2023-07-31T11:21:51;19.70;99.90
17992;DHT22;9121;50.926;5.340;2023-07-31T11:24:18;19.80;99.90
17992;DHT22;9121;50.926;5.340;2023-07-31T11:26:50;19.80;99.90
17992;DHT22;9121;50.926;5.340;2023-07-31T11:29:17;19.80;99.90
17992;DHT22;9121;50.926;5.340;2023-07-31T11:31:44;19.80;99.90
17992;DHT22;9121;50.926;5.340;2023-07-31T11:34:12;19.90;99.90
17992;DHT22;9121;50.926;5.340;2023-07-31T11:36:40;20.00;99.90
17992;DHT22;9121;50.926;5.340;2023-07-31T11:39:08;20.10;99.90
17992;DHT22;9121;50.926;5.340;2023-07-31T11:41:36;20.30;99.90
17992;DHT22;9121;50.926;5.340;2023-07-31T11:44:03;20.30;99.90
17992;DHT22;9121;50.926;5.340;2023-07-31T11:46:30;20.40;99.90
17992;DHT22;9121;50.926;5.340;2023-07-31T11:48:59;20.40;99.90
17992;DHT22;9121;50.926;5.340;2023-07-31T11:51:27;20.50;99.90
17992;DHT22;9121;50.926;5.340;2023-07-31T11:53:59;20.50;99.90
17992;DHT22;9121;50.926;5.340;2023-07-31T11:56:27;20.60;99.90
17992;DHT22;9121;50.926;5.340;2023-07-31T11:58:57;20.60;99.90
17992;DHT22;9121;50.926;5.340;2023-07-31T12:01:25;20.80;99.90
17992;DHT22;9121;50.926;5.340;2023-07-31T12:03:54;20.80;99.90
17992;DHT22;9121;50.926;5.340;2023-07-31T12:06:21;21.00;99.90
17992;DHT22;9121;50.926;5.340;2023-07-31T12:08:48;21.10;99.90
17992;DHT22;9121;50.926;5.340;2023-07-31T12:11:17;21.20;99.90
17992;DHT22;9121;50.926;5.340;2023-07-31T12:13:44;21.20;99.90
17992;DHT22;9121;50.926;5.340;2023-07-31T12:16:11;21.20;99.90
17992;DHT22;9121;50.926;5.340;2023-07-31T12:18:39;21.20;99.90
17992;DHT22;9121;50.926;5.340;2023-07-31T12:21:07;21.10;99.90
17992;DHT22;9121;50.926;5.340;2023-07-31T12:23:36;21.00;99.90
17992;DHT22;9121;50.926;5.340;2023-07-31T12:26:04;20.80;99.90
17992;DHT22;9121;50.926;5.340;2023-07-31T12:28:36;20.60;99.90
17992;DHT22;9121;50.926;5.340;2023-07-31T12:31:04;20.60;99.90
17992;DHT22;9121;50.926;5.340;2023-07-31T12:33:32;20.60;99.90
17992;DHT22;9121;50.926;5.340;2023-07-31T12:36:01;20.80;99.90
17992;DHT22;9121;50.926;5.340;2023-07-31T12:38:28;21.00;99.90
17992;DHT22;9121;50.926;5.340;2023-07-31T12:40:55;21.60;99.90
17992;DHT22;9121;50.926;5.340;2023-07-31T12:43:23;22.10;99.90
17992;DHT22;9121;50.926;5.340;2023-07-31T12:45:54;22.40;99.90
17992;DHT22;9121;50.926;5.340;2023-07-31T12:48:21;22.50;99.90
17992;DHT22;9121;50.926;5.340;2023-07-31T12:50:48;22.20;99.90
17992;DHT22;9121;50.926;5.340;2023-07-31T12:53:15;21.70;99.90
17992;DHT22;9121;50.926;5.340;2023-07-31T12:55:42;21.50;99.90
17992;DHT22;9121;50.926;5.340;2023-07-31T12:58:09;21.50;99.90
17992;DHT22;9121;50.926;5.340;2023-07-31T13:00:36;21.40;99.90
17992;DHT22;9121;50.926;5.340;2023-07-31T13:03:05;21.20;99.90
17992;DHT22;9121;50.926;5.340;2023-07-31T13:05:32;21.10;99.90
17992;DHT22;9121;50.926;5.340;2023-07-31T13:07:59;21.10;99.90
17992;DHT22;9121;50.926;5.340;2023-07-31T13:10:27;21.00;99.90
17992;DHT22;9121;50.926;5.340;2023-07-31T13:12:55;21.00;99.90
17992;DHT22;9121;50.926;5.340;2023-07-31T13:15:22;20.80;99.90
17992;DHT22;9121;50.926;5.340;2023-07-31T13:17:49;20.70;99.90
17992;DHT22;9121;50.926;5.340;2023-07-31T13:20:18;20.60;99.90
17992;DHT22;9121;50.926;5.340;2023-07-31T13:22:44;20.60;99.90
17992;DHT22;9121;50.926;5.340;2023-07-31T13:25:11;20.60;99.90
17992;DHT22;9121;50.926;5.340;2023-07-31T13:27:38;20.50;99.90
17992;DHT22;9121;50.926;5.340;2023-07-31T13:30:06;20.50;99.90
17992;DHT22;9121;50.926;5.340;2023-07-31T13:32:34;20.50;99.90
17992;DHT22;9121;50.926;5.340;2023-07-31T13:35:05;20.50;99.90
17992;DHT22;9121;50.926;5.340;2023-07-31T13:37:33;20.50;99.90
17992;DHT22;9121;50.926;5.340;2023-07-31T13:40:00;20.60;99.90
17992;DHT22;9121;50.926;5.340;2023-07-31T13:42:30;20.60;99.90
17992;DHT22;9121;50.926;5.340;2023-07-31T13:44:57;20.80;99.90
17992;DHT22;9121;50.926;5.340;2023-07-31T13:47:24;20.80;99.90
17992;DHT22;9121;50.926;5.340;2023-07-31T13:49:51;20.70;99.90
17992;DHT22;9121;50.926;5.340;2023-07-31T13:52:18;20.60;99.90
17992;DHT22;9121;50.926;5.340;2023-07-31T13:54:46;20.70;99.90
17992;DHT22;9121;50.926;5.340;2023-07-31T13:57:13;20.70;99.90
17992;DHT22;9121;50.926;5.340;2023-07-31T13:59:40;20.60;99.90
17992;DHT22;9121;50.926;5.340;2023-07-31T14:02:08;20.50;99.90
17992;DHT22;9121;50.926;5.340;2023-07-31T14:04:35;20.50;99.90
17992;DHT22;9121;50.926;5.340;2023-07-31T14:07:02;20.50;99.90
17992;DHT22;9121;50.926;5.340;2023-07-31T14:09:30;20.50;99.90
17992;DHT22;9121;50.926;5.340;2023-07-31T14:11:58;20.50;99.90
17992;DHT22;9121;50.926;5.340;2023-07-31T14:14:25;20.40;99.90
17992;DHT22;9121;50.926;5.340;2023-07-31T14:16:52;20.40;99.90
17992;DHT22;9121;50.926;5.340;2023-07-31T14:19:19;20.40;99.90
17992;DHT22;9121;50.926;5.340;2023-07-31T14:21:46;20.30;99.90
17992;DHT22;9121;50.926;5.340;2023-07-31T14:24:13;20.40;99.90
17992;DHT22;9121;50.926;5.340;2023-07-31T14:26:40;20.30;99.90
17992;DHT22;9121;50.926;5.340;2023-07-31T14:29:08;20.10;99.90
17992;DHT22;9121;50.926;5.340;2023-07-31T14:31:36;20.10;99.90
17992;DHT22;9121;50.926;5.340;2023-07-31T14:34:03;20.10;99.90
17992;DHT22;9121;50.926;5.340;2023-07-31T14:36:29;19.90;99.90
17992;DHT22;9121;50.926;5.340;2023-07-31T14:38:56;19.50;99.90
17992;DHT22;9121;50.926;5.340;2023-07-31T14:41:23;19.00;99.90
17992;DHT22;9121;50.926;5.340;2023-07-31T14:43:50;18.80;99.90
17992;DHT22;9121;50.926;5.340;2023-07-31T14:46:18;18.70;99.90
17992;DHT22;9121;50.926;5.340;2023-07-31T14:48:46;18.60;99.90
17992;DHT22;9121;50.926;5.340;2023-07-31T14:51:13;18.60;99.90
17992;DHT22;9121;50.926;5.340;2023-07-31T14:53:40;18.60;99.90
17992;DHT22;9121;50.926;5.340;2023-07-31T14:56:07;18.70;99.90
17992;DHT22;9121;50.926;5.340;2023-07-31T14:58:34;18.70;99.90
17992;DHT22;9121;50.926;5.340;2023-07-31T15:01:01;18.80;99.90
17992;DHT22;9121;50.926;5.340;2023-07-31T15:03:29;18.80;99.90
17992;DHT22;9121;50.926;5.340;2023-07-31T15:05:56;18.80;99.90
17992;DHT22;9121;50.926;5.340;2023-07-31T15:08:23;18.80;99.90
17992;DHT22;9121;50.926;5.340;2023-07-31T15:10:50;18.70;99.90
17992;DHT22;9121;50.926;5.340;2023-07-31T15:13:22;18.70;99.90
17992;DHT22;9121;50.926;5.340;2023-07-31T15:15:50;18.50;99.90
17992;DHT22;9121;50.926;5.340;2023-07-31T15:18:18;18.40;99.90
17992;DHT22;9121;50.926;5.340;2023-07-31T15:20:46;18.40;99.90
17992;DHT22;9121;50.926;5.340;2023-07-31T15:23:13;18.40;99.90
17992;DHT22;9121;50.926;5.340;2023-07-31T15:25:41;18.40;99.90
17992;DHT22;9121;50.926;5.340;2023-07-31T15:28:08;18.40;99.90
17992;DHT22;9121;50.926;5.340;2023-07-31T15:30:35;18.50;99.90
17992;DHT22;9121;50.926;5.340;2023-07-31T15:33:02;18.40;99.90
17992;DHT22;9121;50.926;5.340;2023-07-31T15:35:29;18.50;99.90
17992;DHT22;9121;50.926;5.340;2023-07-31T15:37:58;18.50;99.90
17992;DHT22;9121;50.926;5.340;2023-07-31T15:40:25;18.50;99.90
17992;DHT22;9121;50.926;5.340;2023-07-31T15:42:52;18.50;99.90
17992;DHT22;9121;50.926;5.340;2023-07-31T15:45:19;18.50;99.90
17992;DHT22;9121;50.926;5.340;2023-07-31T15:47:46;18.50;99.90
17992;DHT22;9121;50.926;5.340;2023-07-31T15:50:13;18.50;99.90